Time;durP1;ratioP1;P1;durP2;ratioP2;P2;SDS_P1;SDS_P2;PMS_P1;PMS_P2;Temp;Humidity;BMP_temperature;BMP_pressure;BME280_temperature;BME280_humidity;BME280_pressure;Samples;Min_cycle;Max_cycle;Signal;HPM_P1;HPM_P2
2022/10/09 00:00:08;;;;;;;2.33;0.60;;;12.50;99.90;;;;;;20993696;28;20690;-68
2022/10/09 00:10:14;;;;;;;1.43;0.80;;;;;;;;;;21046450;28;20208;-69
2022/10/09 00:20:16;;;;;;;0.93;0.53;;;;;;;;;;21028239;28;20204;-68
2022/10/09 00:30:17;;;;;;;3.00;0.97;;;;;;;;;;21032119;22;20225;-74
2022/10/09 00:40:19;;;;;;;1.00;0.80;;;;;;;;;;21045197;28;20239;-74
2022/10/09 00:50:50;;;;;;;2.40;0.70;;;;;;;;;;20979726;28;20229;-74
2022/10/09 01:00:52;;;;;;;1.20;0.70;;;12.00;99.90;;;;;;20965108;28;20816;-74
2022/10/09 01:10:57;;;;;;;0.70;0.60;;;;;;;;;;20993091;28;20217;-73
2022/10/09 01:20:59;;;;;;;1.13;0.80;;;;;;;;;;21014491;28;20271;-73
2022/10/09 01:31:03;;;;;;;0.97;0.53;;;11.80;99.90;;;;;;20961031;28;20221;-73
2022/10/09 01:41:06;;;;;;;1.30;0.70;;;11.70;99.90;;;;;;20975894;28;20267;-73
2022/10/09 01:51:09;;;;;;;1.57;0.83;;;;;;;;;;21004679;28;20302;-73
2022/10/09 02:01:29;;;;;;;1.67;0.80;;;11.60;99.90;;;;;;20992571;28;20221;-72
2022/10/09 02:11:31;;;;;;;1.40;0.73;;;;;;;;;;21029819;28;20229;-72
2022/10/09 02:21:36;;;;;;;0.67;0.50;;;11.30;99.90;;;;;;21046632;28;20573;-72
2022/10/09 02:31:38;;;;;;;0.60;0.60;;;;;;;;;;21001307;28;20315;-72
2022/10/09 02:41:40;;;;;;;0.70;0.63;;;;;;;;;;20990204;28;20201;-72
2022/10/09 02:51:42;;;;;;;1.00;0.60;;;;;;;;;;20988299;28;20285;-72
2022/10/09 03:01:43;;;;;;;0.60;0.50;;;;;;;;;;20993274;28;20201;-73
2022/10/09 03:11:45;;;;;;;0.90;0.60;;;;;;;;;;20987911;28;20208;-73
2022/10/09 03:21:47;;;;;;;0.97;0.40;;;;;;;;;;20985146;28;20205;-73
2022/10/09 03:31:48;;;;;;;3.33;0.77;;;;;;;;;;20968700;28;20221;-71
2022/10/09 03:41:51;;;;;;;2.20;0.60;;;;;;;;;;20984819;28;20310;-70
2022/10/09 03:51:52;;;;;;;1.53;0.80;;;;;;;;;;21014738;28;20230;-71
2022/10/09 04:01:54;;;;;;;1.70;0.83;;;;;;;;;;21066223;28;20262;-73
2022/10/09 04:11:55;;;;;;;1.80;0.83;;;;;;;;;;21017138;28;21046;-70
2022/10/09 04:21:57;;;;;;;1.97;0.80;;;;;;;;;;21024443;28;20243;-71
2022/10/09 04:31:59;;;;;;;0.80;0.50;;;;;;;;;;21026656;28;20213;-71
2022/10/09 04:42:01;;;;;;;2.70;0.80;;;;;;;;;;20987349;28;20247;-71
2022/10/09 04:52:03;;;;;;;1.47;0.90;;;;;;;;;;20979415;28;20282;-71
2022/10/09 05:02:04;;;;;;;5.07;0.83;;;;;;;;;;21015216;28;20231;-71
2022/10/09 05:12:06;;;;;;;1.37;0.60;;;;;;;;;;20962170;28;20213;-71
2022/10/09 05:22:08;;;;;;;1.40;0.73;;;;;;;;;;20976420;28;20597;-71
2022/10/09 05:32:10;;;;;;;1.67;0.80;;;;;;;;;;21000653;28;20217;-71
2022/10/09 05:42:12;;;;;;;2.53;0.80;;;;;;;;;;20993582;28;20213;-71
2022/10/09 05:52:13;;;;;;;2.27;0.67;;;;;;;;;;21025376;28;20221;-71
2022/10/09 06:02:15;;;;;;;1.20;0.60;;;;;;;;;;20992005;28;20271;-71
2022/10/09 06:12:17;;;;;;;2.87;0.90;;;;;;;;;;20991375;28;20213;-71
2022/10/09 06:22:18;;;;;;;1.00;0.70;;;;;;;;;;21019480;28;20572;-71
2022/10/09 06:32:20;;;;;;;1.23;0.90;;;;;;;;;;21052561;22;20228;-69
2022/10/09 06:42:22;;;;;;;1.93;0.90;;;;;;;;;;20959665;28;20208;-69
2022/10/09 06:52:31;;;;;;;1.40;0.90;;;;;;;;;;20974885;28;20205;-70
2022/10/09 07:02:33;;;;;;;2.60;1.10;;;;;;;;;;20983790;28;20262;-70
2022/10/09 07:12:36;;;;;;;1.83;1.10;;;10.70;99.90;;;;;;20960303;28;20262;-68
2022/10/09 07:22:38;;;;;;;2.00;1.13;;;;;;;;;;20934425;28;20225;-70
2022/10/09 07:32:40;;;;;;;1.70;0.90;;;;;;;;;;20976717;28;20577;-69
2022/10/09 07:42:46;;;;;;;1.77;0.97;;;;;;;;;;20919368;28;20205;-70
2022/10/09 07:52:49;;;;;;;2.07;1.27;;;;;;;;;;20937280;28;20621;-69
2022/10/09 08:02:50;;;;;;;2.83;1.40;;;;;;;;;;20938629;28;20553;-70
2022/10/09 08:12:53;;;;;;;1.97;1.20;;;;;;;;;;20948162;28;20291;-71
2022/10/09 08:22:55;;;;;;;3.17;1.10;;;;;;;;;;20943845;28;20206;-71
2022/10/09 08:32:56;;;;;;;3.07;1.30;;;;;;;;;;20906568;28;20723;-71
2022/10/09 08:43:02;;;;;;;3.70;1.43;;;;;;;;;;20925225;28;20778;-71
2022/10/09 08:53:18;;;;;;;2.50;1.30;;;;;;;;;;20936288;28;20718;-71
2022/10/09 09:03:43;;;;;;;2.10;1.43;;;13.20;99.90;;;;;;20928054;28;20717;-71
2022/10/09 09:13:50;;;;;;;1.60;1.10;;;;;;;;;;20896396;28;20210;-71
2022/10/09 09:23:52;;;;;;;2.27;1.30;;;;;;;;;;20932731;28;20703;-72
2022/10/09 09:33:57;;;;;;;1.50;1.20;;;;;;;;;;20954107;28;20649;-70
2022/10/09 09:43:58;;;;;;;3.53;1.60;;;;;;;;;;20952881;28;20525;-71
2022/10/09 09:54:06;;;;;;;4.70;1.23;;;14.20;99.90;;;;;;20985781;28;20218;-72
2022/10/09 10:04:18;;;;;;;1.30;0.90;;;;;;;;;;20964188;28;20679;-72
2022/10/09 10:14:20;;;;;;;1.60;0.93;;;;;;;;;;20953112;28;20239;-73
2022/10/09 10:24:26;;;;;;;1.90;0.80;;;;;;;;;;20977704;28;20228;-72
2022/10/09 10:34:39;;;;;;;0.60;0.53;;;14.80;99.90;;;;;;20972005;28;20225;-73
2022/10/09 10:44:48;;;;;;;1.43;0.83;;;;;;;;;;20907840;28;20245;-73
2022/10/09 10:55:10;;;;;;;3.13;1.00;;;15.20;99.90;;;;;;20917435;28;20213;-73
2022/10/09 11:05:41;;;;;;;0.73;0.50;;;;;;;;;;20954921;28;20237;-74
2022/10/09 11:15:43;;;;;;;1.23;0.70;;;;;;;;;;20956679;28;20627;-71
2022/10/09 11:25:53;;;;;;;0.50;0.50;;;;;;;;;;20952529;28;20279;-73
2022/10/09 11:36:01;;;;;;;1.27;0.27;;;;;;;;;;20970983;28;20270;-73
2022/10/09 11:46:18;;;;;;;0.53;0.40;;;16.10;99.90;;;;;;20950606;28;20290;-73
2022/10/09 11:56:28;;;;;;;2.17;0.40;;;16.40;99.90;;;;;;20952087;28;20212;-74
2022/10/09 12:06:31;;;;;;;2.53;0.67;;;;;;;;;;20961345;28;20250;-72
2022/10/09 12:16:41;;;;;;;0.70;0.53;;;17.00;99.90;;;;;;20983780;28;20201;-72
2022/10/09 12:26:43;;;;;;;1.13;0.40;;;;;;;;;;20982259;28;20209;-73
2022/10/09 12:36:44;;;;;;;2.20;0.60;;;;;;;;;;20981421;22;20222;-67
2022/10/09 12:46:46;;;;;;;0.50;0.40;;;;;;;;;;20936012;28;20232;-67
2022/10/09 12:56:48;;;;;;;0.70;0.47;;;;;;;;;;20932111;28;20547;-67
2022/10/09 13:06:51;;;;;;;1.53;0.60;;;;;;;;;;21005193;28;20272;-67
2022/10/09 13:16:53;;;;;;;1.00;0.50;;;;;;;;;;21008257;28;20238;-66
2022/10/09 13:26:55;;;;;;;1.17;0.40;;;;;;;;;;21046586;28;20424;-67
2022/10/09 13:36:58;;;;;;;0.60;0.40;;;;;;;;;;21046361;28;20566;-67
2022/10/09 13:46:59;;;;;;;0.47;0.30;;;;;;;;;;21029607;28;20293;-66
2022/10/09 13:57:02;;;;;;;1.27;0.50;;;;;;;;;;21044756;28;20228;-67
2022/10/09 14:07:04;;;;;;;0.80;0.40;;;;;;;;;;21044102;28;20277;-67
2022/10/09 14:17:06;;;;;;;1.37;0.50;;;;;;;;;;21009974;28;20251;-67
2022/10/09 14:27:08;;;;;;;1.77;0.57;;;;;;;;;;21026490;28;20220;-66
2022/10/09 14:37:10;;;;;;;1.20;0.53;;;;;;;;;;21001507;28;20274;-67
2022/10/09 14:47:11;;;;;;;1.10;0.50;;;;;;;;;;20919275;28;20239;-66
2022/10/09 14:57:13;;;;;;;0.83;0.40;;;;;;;;;;20936228;28;20217;-67
2022/10/09 15:07:16;;;;;;;0.83;0.50;;;;;;;;;;20977393;28;20236;-67
2022/10/09 15:17:18;;;;;;;1.00;0.40;;;;;;;;;;20961263;28;20270;-67
2022/10/09 15:27:20;;;;;;;1.60;0.40;;;;;;;;;;20927965;28;20700;-67
2022/10/09 15:37:22;;;;;;;0.40;0.33;;;;;;;;;;20953717;28;20260;-67
2022/10/09 15:47:26;;;;;;;1.20;0.50;;;16.10;99.90;;;;;;20937010;28;20230;-67
2022/10/09 15:57:29;;;;;;;1.27;0.40;;;;;;;;;;20969674;28;20651;-67
2022/10/09 16:07:33;;;;;;;1.03;0.40;;;16.20;99.90;;;;;;20935875;28;20282;-67
2022/10/09 16:17:35;;;;;;;0.90;0.30;;;;;;;;;;20952258;28;20282;-67
2022/10/09 16:27:37;;;;;;;1.10;0.50;;;;;;;;;;20921556;28;20225;-67
2022/10/09 16:37:39;;;;;;;1.43;0.60;;;;;;;;;;20933799;28;20228;-67
2022/10/09 16:47:43;;;;;;;1.20;0.60;;;;;;;;;;20957740;28;20692;-67
2022/10/09 16:57:45;;;;;;;1.93;0.60;;;;;;;;;;20944670;28;20218;-67
2022/10/09 17:07:47;;;;;;;1.23;0.80;;;;;;;;;;20921226;28;20712;-67
2022/10/09 17:17:49;;;;;;;0.87;0.53;;;;;;;;;;20930166;28;20326;-67
2022/10/09 17:27:51;;;;;;;0.73;0.50;;;;;;;;;;20912612;28;20213;-67
2022/10/09 17:37:55;;;;;;;2.07;0.60;;;;;;;;;;20957877;28;20221;-67
2022/10/09 17:47:58;;;;;;;1.13;0.60;;;;;;;;;;20892273;28;20283;-68
2022/10/09 17:58:00;;;;;;;0.97;0.50;;;;;;;;;;20901791;28;20234;-67
2022/10/09 18:08:02;;;;;;;1.47;0.80;;;;;;;;;;20908268;28;20299;-67
2022/10/09 18:18:05;;;;;;;2.23;0.77;;;;;;;;;;20915956;28;20229;-68
2022/10/09 18:28:07;;;;;;;2.90;1.20;;;;;;;;;;20951900;28;20263;-67
2022/10/09 18:38:11;;;;;;;2.47;1.20;;;;;;;;;;20989007;22;20332;-72
2022/10/09 18:48:13;;;;;;;1.97;1.10;;;;;;;;;;21131998;28;20737;-73
2022/10/09 18:58:16;;;;;;;2.67;1.20;;;;;;;;;;21139555;28;20216;-73
2022/10/09 19:08:18;;;;;;;3.47;1.73;;;;;;;;;;21130238;28;20759;-73
2022/10/09 19:18:21;;;;;;;1.63;0.90;;;;;;;;;;21137677;28;20271;-72
2022/10/09 19:28:25;;;;;;;2.00;0.93;;;;;;;;;;21070251;28;20281;-73
2022/10/09 19:38:26;;;;;;;1.07;0.70;;;14.50;99.90;;;;;;21103929;28;20211;-75
2022/10/09 19:48:28;;;;;;;1.13;0.70;;;;;;;;;;21132392;28;20300;-74
2022/10/09 19:58:30;;;;;;;1.47;0.93;;;;;;;;;;21144515;28;20228;-74
2022/10/09 20:08:33;;;;;;;2.13;0.60;;;;;;;;;;21122991;28;20756;-72
2022/10/09 20:18:34;;;;;;;1.17;0.80;;;;;;;;;;21127207;28;20215;-73
2022/10/09 20:28:37;;;;;;;1.30;0.73;;;;;;;;;;21100830;28;20216;-72
2022/10/09 20:38:39;;;;;;;1.03;0.70;;;;;;;;;;21108735;27;20304;-74
2022/10/09 20:48:42;;;;;;;0.63;0.50;;;;;;;;;;21126788;28;20293;-73
2022/10/09 20:58:44;;;;;;;1.10;0.80;;;;;;;;;;21115403;28;20220;-73
2022/10/09 21:08:46;;;;;;;1.63;0.90;;;;;;;;;;21146296;28;20224;-74
2022/10/09 21:18:52;;;;;;;2.40;1.03;;;;;;;;;;21127937;28;20220;-74
2022/10/09 21:28:54;;;;;;;1.77;1.17;;;;;;;;;;21159224;28;20273;-72
2022/10/09 21:38:55;;;;;;;2.10;0.97;;;;;;;;;;21163459;28;20542;-72
2022/10/09 21:48:57;;;;;;;2.17;0.90;;;;;;;;;;21160617;28;20283;-72
2022/10/09 21:59:00;;;;;;;1.13;0.80;;;;;;;;;;21160970;28;20280;-72
2022/10/09 22:09:01;;;;;;;1.37;0.80;;;;;;;;;;21150128;28;20778;-72
2022/10/09 22:19:03;;;;;;;1.23;0.80;;;;;;;;;;21140779;28;20277;-72
2022/10/09 22:29:05;;;;;;;1.87;0.70;;;;;;;;;;21131277;28;20216;-72
2022/10/09 22:39:07;;;;;;;1.43;1.00;;;;;;;;;;21122925;28;20262;-72
2022/10/09 22:49:10;;;;;;;1.03;0.70;;;;;;;;;;21146860;28;20211;-72
2022/10/09 22:59:13;;;;;;;1.70;0.90;;;;;;;;;;21131965;28;20228;-72
2022/10/09 23:09:15;;;;;;;2.07;0.90;;;;;;;;;;21123198;28;20215;-73
2022/10/09 23:19:17;;;;;;;1.60;0.90;;;;;;;;;;21120585;28;20245;-75
2022/10/09 23:29:19;;;;;;;3.03;1.50;;;;;;;;;;21143781;28;20578;-72
2022/10/09 23:39:21;;;;;;;0.97;0.80;;;;;;;;;;21034240;28;20220;-72
2022/10/09 23:49:23;;;;;;;1.60;0.90;;;;;;;;;;21050577;28;20224;-72
2022/10/09 23:59:25;;;;;;;2.77;1.10;;;;;;;;;;21100996;28;20228;-72
